createdAt,value
2023-05-05T00:02:01.730Z,60.35
2023-05-05T00:04:28.636Z,60.20
2023-05-05T00:06:54.928Z,60.20
2023-05-05T00:09:21.480Z,60.24
2023-05-05T00:11:47.839Z,60.42
2023-05-05T00:14:14.183Z,60.37
2023-05-05T00:16:40.552Z,60.96
2023-05-05T00:19:07.068Z,60.05
2023-05-05T00:21:33.353Z,60.06
2023-05-05T00:23:59.625Z,60.43
2023-05-05T00:26:25.919Z,61.04
2023-05-05T00:28:52.239Z,60.29
2023-05-05T00:31:18.547Z,60.25
2023-05-05T00:33:44.911Z,61.15
2023-05-05T00:36:11.313Z,61.11
2023-05-05T00:38:37.997Z,60.36
2023-05-05T00:41:04.408Z,59.72
2023-05-05T00:43:30.711Z,60.74
2023-05-05T00:46:02.310Z,60.61
2023-05-05T00:48:31.851Z,59.77
2023-05-05T00:50:58.718Z,59.37
2023-05-05T00:53:26.452Z,59.80
2023-05-05T00:55:53.227Z,60.52
2023-05-05T00:58:19.545Z,60.48
2023-05-05T01:00:45.892Z,59.38
2023-05-05T01:03:15.209Z,59.54
2023-05-05T01:06:00.180Z,60.26
2023-05-05T01:08:49.513Z,60.49
2023-05-05T01:11:48.048Z,59.42
2023-05-05T01:14:16.615Z,59.25
2023-05-05T01:16:55.997Z,59.07
2023-05-05T01:19:40.791Z,58.75
2023-05-05T01:22:08.820Z,58.85
2023-05-05T01:25:04.246Z,58.99
2023-05-05T01:27:39.405Z,59.61
2023-05-05T01:30:24.543Z,58.79
2023-05-05T01:32:52.218Z,59.84
2023-05-05T01:35:20.572Z,58.91
2023-05-05T01:38:02.917Z,58.85
2023-05-05T01:40:31.824Z,59.65
2023-05-05T01:43:00.543Z,59.01
2023-05-05T01:45:29.303Z,59.52
2023-05-05T01:47:56.238Z,59.32
2023-05-05T01:50:23.032Z,59.32
2023-05-05T01:52:50.332Z,59.40
2023-05-05T01:55:18.315Z,59.26
2023-05-05T01:57:45.366Z,60.18
2023-05-05T02:00:12.228Z,60.50
2023-05-05T02:02:39.185Z,59.42
2023-05-05T02:05:06.504Z,60.27
2023-05-05T02:07:33.571Z,61.23
2023-05-05T02:10:01.327Z,60.83
2023-05-05T02:12:29.763Z,61.19
2023-05-05T02:14:57.924Z,60.35
2023-05-05T02:17:25.329Z,60.06
2023-05-05T02:19:52.410Z,60.04
2023-05-05T02:22:18.950Z,60.72
2023-05-05T02:24:45.323Z,61.41
2023-05-05T02:27:11.972Z,60.93
2023-05-05T02:29:44.701Z,59.99
2023-05-05T02:32:14.283Z,59.76
2023-05-05T02:34:42.028Z,61.00
2023-05-05T02:37:11.085Z,60.00
2023-05-05T02:39:43.430Z,60.07
2023-05-05T02:42:13.023Z,61.05
2023-05-05T02:44:42.160Z,60.06
2023-05-05T02:47:08.725Z,61.64
2023-05-05T02:49:35.195Z,60.20
2023-05-05T02:52:01.566Z,61.59
2023-05-05T02:54:28.253Z,61.25
2023-05-05T02:56:57.194Z,61.50
2023-05-05T02:59:33.438Z,61.64
2023-05-05T03:02:21.783Z,61.20
2023-05-05T03:04:54.065Z,60.83
2023-05-05T03:07:46.776Z,61.08
2023-05-05T03:10:15.034Z,61.25
2023-05-05T03:13:00.816Z,60.32
2023-05-05T03:15:37.658Z,61.05
2023-05-05T03:18:04.295Z,60.59
2023-05-05T03:20:31.091Z,60.15
2023-05-05T03:22:57.564Z,60.45
2023-05-05T03:25:41.057Z,61.07
2023-05-05T03:28:07.353Z,61.33
2023-05-05T03:30:33.694Z,60.63
2023-05-05T03:33:00.064Z,59.69
2023-05-05T03:35:26.386Z,60.65
2023-05-05T03:37:52.733Z,60.54
2023-05-05T03:40:19.055Z,61.41
2023-05-05T03:42:45.480Z,61.11
2023-05-05T03:45:12.232Z,60.41
2023-05-05T03:47:38.556Z,60.97
2023-05-05T03:50:05.214Z,61.06
2023-05-05T03:52:31.799Z,61.25
2023-05-05T03:54:59.936Z,60.80
2023-05-05T03:57:26.810Z,61.55
2023-05-05T03:59:54.000Z,61.65
2023-05-05T04:02:20.407Z,61.93
2023-05-05T04:04:46.789Z,60.66
2023-05-05T04:07:13.101Z,61.45
2023-05-05T04:09:44.317Z,60.13
2023-05-05T04:12:11.108Z,59.62
2023-05-05T04:14:37.449Z,61.60
2023-05-05T04:17:03.931Z,60.11
2023-05-05T04:19:33.163Z,60.65
2023-05-05T04:22:00.006Z,60.52
2023-05-05T04:24:26.959Z,60.97
2023-05-05T04:26:53.391Z,60.68
2023-05-05T04:29:19.779Z,60.10
2023-05-05T04:31:46.266Z,60.98
2023-05-05T04:34:12.683Z,60.99
2023-05-05T04:36:38.994Z,60.68
2023-05-05T04:39:06.885Z,59.54
2023-05-05T04:41:33.384Z,59.35
2023-05-05T04:44:00.487Z,60.29
2023-05-05T04:46:26.829Z,60.10
2023-05-05T04:48:53.213Z,59.48
2023-05-05T04:51:19.669Z,60.95
2023-05-05T04:53:46.422Z,59.70
2023-05-05T04:56:12.714Z,59.59
2023-05-05T04:58:38.975Z,59.25
2023-05-05T05:01:05.288Z,58.60
2023-05-05T05:03:31.986Z,59.14
2023-05-05T05:05:58.475Z,58.93
2023-05-05T05:08:24.815Z,58.86
2023-05-05T05:10:51.300Z,59.03
2023-05-05T05:13:17.742Z,58.21
2023-05-05T05:15:45.063Z,58.56
2023-05-05T05:18:11.485Z,57.86
2023-05-05T05:20:37.791Z,58.25
2023-05-05T05:23:04.470Z,56.86
2023-05-05T05:25:30.848Z,56.36
2023-05-05T05:28:08.783Z,56.06
2023-05-05T05:30:36.631Z,55.92
2023-05-05T05:33:02.987Z,54.13
2023-05-05T05:35:29.273Z,55.26
2023-05-05T05:37:55.761Z,54.26
2023-05-05T05:40:22.056Z,53.90
2023-05-05T05:42:48.354Z,54.39
2023-05-05T05:45:14.704Z,53.99
2023-05-05T05:47:41.049Z,54.21
2023-05-05T05:50:07.841Z,54.13
2023-05-05T05:52:36.080Z,53.64
2023-05-05T05:55:02.573Z,53.82
2023-05-05T05:57:28.993Z,54.11
2023-05-05T05:59:55.387Z,54.16
2023-05-05T06:02:21.837Z,52.98
2023-05-05T06:04:48.160Z,53.39
2023-05-05T06:07:14.555Z,53.31
2023-05-05T06:09:41.380Z,52.86
2023-05-05T06:12:07.663Z,53.06
2023-05-05T06:14:33.976Z,53.02
2023-05-05T06:17:00.266Z,53.88
2023-05-05T06:19:26.559Z,52.89
2023-05-05T06:21:52.977Z,52.90
2023-05-05T06:24:19.258Z,52.68
2023-05-05T06:26:45.745Z,54.47
2023-05-05T06:29:12.504Z,53.34
2023-05-05T06:31:38.909Z,53.26
2023-05-05T06:34:05.241Z,52.43
2023-05-05T06:36:32.290Z,52.50
2023-05-05T06:38:58.716Z,52.27
2023-05-05T06:41:25.072Z,52.40
2023-05-05T06:43:51.472Z,52.28
2023-05-05T06:46:17.817Z,52.06
2023-05-05T06:48:44.147Z,51.99
2023-05-05T06:51:10.474Z,52.41
2023-05-05T06:53:36.745Z,51.72
2023-05-05T06:56:03.101Z,52.39
2023-05-05T06:58:29.435Z,51.81
2023-05-05T07:00:55.925Z,52.26
2023-05-05T07:03:22.308Z,51.96
2023-05-05T07:05:48.709Z,51.67
2023-05-05T07:08:15.245Z,51.74
2023-05-05T07:10:41.815Z,51.52
2023-05-05T07:13:08.353Z,51.70
2023-05-05T07:15:34.832Z,51.65
2023-05-05T07:18:01.259Z,51.82
2023-05-05T07:20:27.699Z,51.41
2023-05-05T07:22:54.081Z,51.38
2023-05-05T07:25:20.848Z,51.85
2023-05-05T07:27:47.206Z,52.97
2023-05-05T07:30:16.530Z,53.46
2023-05-05T07:32:44.694Z,51.01
2023-05-05T07:35:11.300Z,50.76
2023-05-05T07:37:37.634Z,50.95
2023-05-05T07:40:04.149Z,50.30
2023-05-05T07:42:30.620Z,49.53
2023-05-05T07:44:56.964Z,48.42
2023-05-05T07:47:23.366Z,48.76
2023-05-05T07:49:49.779Z,48.80
2023-05-05T07:52:16.107Z,48.21
2023-05-05T07:54:42.536Z,47.62
2023-05-05T07:57:08.881Z,46.53
2023-05-05T07:59:35.276Z,47.12
2023-05-05T08:02:01.593Z,47.69
2023-05-05T08:04:28.008Z,47.40
2023-05-05T08:06:54.378Z,46.86
2023-05-05T08:09:20.714Z,47.34
2023-05-05T08:11:47.052Z,47.49
2023-05-05T08:14:13.480Z,49.41
2023-05-05T08:16:39.784Z,48.22
2023-05-05T08:19:14.582Z,46.91
2023-05-05T08:21:47.788Z,50.06
2023-05-05T08:24:14.167Z,49.48
2023-05-05T08:26:40.708Z,49.90
2023-05-05T08:29:07.157Z,48.35
2023-05-05T08:31:34.446Z,48.18
2023-05-05T08:34:00.850Z,48.16
2023-05-05T08:36:27.256Z,48.55
2023-05-05T08:38:53.588Z,48.48
2023-05-05T08:41:19.960Z,48.74
2023-05-05T08:43:47.189Z,51.52
2023-05-05T08:46:13.660Z,50.38
2023-05-05T08:48:43.227Z,49.72
2023-05-05T08:51:10.987Z,50.93
2023-05-05T08:53:56.172Z,49.22
2023-05-05T08:56:25.748Z,50.68
2023-05-05T08:58:52.321Z,49.11
2023-05-05T09:01:18.666Z,50.56
2023-05-05T09:03:46.198Z,49.32
2023-05-05T09:06:12.745Z,49.25
2023-05-05T09:08:39.157Z,51.21
2023-05-05T09:11:05.983Z,50.96
2023-05-05T09:13:32.627Z,51.86
2023-05-05T09:15:59.417Z,50.93
2023-05-05T09:18:26.048Z,51.38
2023-05-05T09:20:52.427Z,51.08
2023-05-05T09:23:19.751Z,49.63
2023-05-05T09:25:47.079Z,50.45
2023-05-05T09:28:14.323Z,50.89
2023-05-05T09:30:42.353Z,51.41
2023-05-05T09:33:09.135Z,48.12
2023-05-05T09:36:08.120Z,48.93
2023-05-05T09:38:34.977Z,49.41
2023-05-05T09:41:01.509Z,47.93
2023-05-05T09:43:27.924Z,48.90
2023-05-05T09:46:05.516Z,47.13
2023-05-05T09:48:32.297Z,46.97
2023-05-05T09:50:59.318Z,48.26
2023-05-05T09:53:26.521Z,47.24
2023-05-05T09:55:54.165Z,45.50
2023-05-05T09:58:21.270Z,47.25
2023-05-05T10:00:47.972Z,46.11
2023-05-05T10:03:14.513Z,46.78
2023-05-05T10:05:48.476Z,45.94
2023-05-05T10:08:14.823Z,46.70
2023-05-05T10:10:46.403Z,46.63
2023-05-05T10:13:12.880Z,47.00
2023-05-05T10:15:41.781Z,45.16
2023-05-05T10:18:08.686Z,45.39
2023-05-05T10:20:36.347Z,48.38
2023-05-05T10:23:05.481Z,47.26
2023-05-05T10:25:35.163Z,45.81
2023-05-05T10:28:04.776Z,46.98
2023-05-05T10:30:32.019Z,47.48
2023-05-05T10:33:30.397Z,47.48
2023-05-05T10:36:00.880Z,48.17
2023-05-05T10:38:28.894Z,49.33
2023-05-05T10:40:56.365Z,47.94
2023-05-05T10:43:23.326Z,47.72
2023-05-05T10:45:49.908Z,50.62
2023-05-05T10:48:21.054Z,48.77
2023-05-05T10:50:54.782Z,48.12
2023-05-05T10:53:26.044Z,47.54
2023-05-05T10:56:01.605Z,48.94
2023-05-05T10:58:35.054Z,49.22
2023-05-05T11:01:08.048Z,47.97
2023-05-05T11:03:34.546Z,47.64
2023-05-05T11:06:03.882Z,49.11
2023-05-05T11:08:36.734Z,48.27
2023-05-05T11:11:03.307Z,48.43
2023-05-05T11:13:29.734Z,47.51
2023-05-05T11:15:57.390Z,48.52
2023-05-05T11:18:36.105Z,48.31
2023-05-05T11:21:03.904Z,48.76
2023-05-05T11:23:30.535Z,47.37
2023-05-05T11:25:57.673Z,47.51
2023-05-05T11:28:25.519Z,47.50
2023-05-05T11:30:54.926Z,47.71
2023-05-05T11:33:25.674Z,47.07
2023-05-05T11:36:03.422Z,47.72
2023-05-05T11:38:37.799Z,47.76
2023-05-05T11:41:17.209Z,49.39
2023-05-05T11:43:43.563Z,48.27
2023-05-05T11:46:19.425Z,47.55
2023-05-05T11:48:49.566Z,47.39
2023-05-05T11:51:16.980Z,48.92
2023-05-05T11:53:44.273Z,47.15
2023-05-05T11:56:11.312Z,47.52
2023-05-05T11:58:37.885Z,47.16
2023-05-05T12:01:05.719Z,48.83
2023-05-05T12:03:38.953Z,47.42
2023-05-05T12:06:06.327Z,46.73
2023-05-05T12:08:36.476Z,46.43
2023-05-05T12:11:09.953Z,47.39
2023-05-05T12:13:36.401Z,47.24
2023-05-05T12:16:09.678Z,47.70
2023-05-05T12:18:36.180Z,48.78
2023-05-05T12:21:12.416Z,47.62
2023-05-05T12:23:39.130Z,48.26
2023-05-05T12:26:05.458Z,47.92
2023-05-05T12:28:46.316Z,49.18
2023-05-05T12:31:12.779Z,49.62
2023-05-05T12:33:39.737Z,50.26
2023-05-05T12:36:07.186Z,49.47
2023-05-05T12:38:33.504Z,49.09
2023-05-05T12:40:59.804Z,50.44
2023-05-05T12:43:28.333Z,50.68
2023-05-05T12:46:00.547Z,49.97
2023-05-05T12:48:26.988Z,50.80
2023-05-05T12:50:53.303Z,50.27
2023-05-05T12:53:23.953Z,50.75
2023-05-05T12:55:51.147Z,50.52
2023-05-05T12:58:17.592Z,51.47
2023-05-05T13:00:44.015Z,50.77
2023-05-05T13:03:19.843Z,51.21
2023-05-05T13:05:46.383Z,51.41
2023-05-05T13:08:12.689Z,51.91
2023-05-05T13:10:41.423Z,51.24
2023-05-05T13:13:08.717Z,52.61
2023-05-05T13:15:35.237Z,51.25
2023-05-05T13:18:02.512Z,51.95
2023-05-05T13:20:28.987Z,51.53
2023-05-05T13:22:55.415Z,52.75
2023-05-05T13:25:21.721Z,51.68
2023-05-05T13:27:48.039Z,51.97
2023-05-05T13:30:14.535Z,51.44
2023-05-05T13:32:41.278Z,52.51
2023-05-05T13:35:08.214Z,51.97
2023-05-05T13:37:34.745Z,52.03
2023-05-05T13:40:01.292Z,51.33
2023-05-05T13:42:27.661Z,50.16
2023-05-05T13:44:53.991Z,50.46
2023-05-05T13:47:20.730Z,51.54
2023-05-05T13:49:47.221Z,49.80
2023-05-05T13:52:13.617Z,49.25
2023-05-05T13:54:40.186Z,49.97
2023-05-05T13:57:07.907Z,49.54
2023-05-05T13:59:34.248Z,50.08
2023-05-05T14:02:01.172Z,50.63
2023-05-05T14:04:27.592Z,49.18
2023-05-05T14:06:54.524Z,49.76
2023-05-05T14:09:21.056Z,49.13
2023-05-05T14:11:47.363Z,48.43
2023-05-05T14:14:13.722Z,49.08
2023-05-05T14:16:40.212Z,49.52
2023-05-05T14:19:06.528Z,49.43
2023-05-05T14:21:33.029Z,50.27
2023-05-05T14:23:59.523Z,49.31
2023-05-05T14:26:25.913Z,49.50
2023-05-05T14:28:52.262Z,49.76
2023-05-05T14:31:18.640Z,50.58
2023-05-05T14:33:44.942Z,49.80
2023-05-05T14:36:11.344Z,50.19
2023-05-05T14:38:37.714Z,51.33
2023-05-05T14:41:04.197Z,50.01
2023-05-05T14:43:30.525Z,49.88
2023-05-05T14:45:58.973Z,49.96
2023-05-05T14:48:25.397Z,50.02
2023-05-05T14:50:51.720Z,50.30
2023-05-05T14:53:18.957Z,50.11
2023-05-05T14:55:45.371Z,50.16
2023-05-05T14:58:11.658Z,49.36
2023-05-05T15:00:38.026Z,49.16
2023-05-05T15:03:04.438Z,50.72
2023-05-05T15:05:30.848Z,50.32
2023-05-05T15:07:57.250Z,51.16
2023-05-05T15:10:23.645Z,50.56
2023-05-05T15:12:50.970Z,50.21
2023-05-05T15:15:17.795Z,50.09
2023-05-05T15:17:44.139Z,50.59
2023-05-05T15:20:10.774Z,50.77
2023-05-05T15:22:37.129Z,50.16
2023-05-05T15:25:03.571Z,50.81
2023-05-05T15:27:31.565Z,50.82
2023-05-05T15:29:57.900Z,50.38
2023-05-05T15:32:24.238Z,50.48
2023-05-05T15:34:50.729Z,50.24
2023-05-05T15:37:17.161Z,49.92
2023-05-05T15:39:43.600Z,50.23
2023-05-05T15:42:10.213Z,49.11
2023-05-05T15:44:36.581Z,49.10
2023-05-05T15:47:03.011Z,48.49
2023-05-05T15:49:29.339Z,48.19
2023-05-05T15:51:55.845Z,48.18
2023-05-05T15:54:22.256Z,47.64
2023-05-05T15:56:48.651Z,47.75
2023-05-05T15:59:14.985Z,47.28
2023-05-05T16:01:41.390Z,46.92
2023-05-05T16:04:07.802Z,47.89
2023-05-05T16:06:34.216Z,46.83
2023-05-05T16:09:00.637Z,47.46
2023-05-05T16:11:27.194Z,47.05
2023-05-05T16:13:53.651Z,46.69
2023-05-05T16:16:20.030Z,47.89
2023-05-05T16:18:46.398Z,46.93
2023-05-05T16:21:12.875Z,46.97
2023-05-05T16:23:39.297Z,48.24
2023-05-05T16:26:05.650Z,47.21
2023-05-05T16:28:34.185Z,47.96
2023-05-05T16:31:00.983Z,47.77
2023-05-05T16:33:27.788Z,48.53
2023-05-05T16:35:54.138Z,47.27
2023-05-05T16:38:20.681Z,47.94
2023-05-05T16:40:47.004Z,47.81
2023-05-05T16:43:13.352Z,48.02
2023-05-05T16:45:39.678Z,48.42
2023-05-05T16:48:08.904Z,48.97
2023-05-05T16:50:35.863Z,48.75
2023-05-05T16:53:02.204Z,48.56
2023-05-05T16:55:28.594Z,48.94
2023-05-05T16:57:54.979Z,48.74
2023-05-05T17:00:21.386Z,48.95
2023-05-05T17:02:47.747Z,49.06
2023-05-05T17:05:14.151Z,50.59
2023-05-05T17:07:40.610Z,49.90
2023-05-05T17:10:07.361Z,50.35
2023-05-05T17:12:33.683Z,50.91
2023-05-05T17:15:00.133Z,50.02
2023-05-05T17:17:26.710Z,51.20
2023-05-05T17:19:53.106Z,49.99
2023-05-05T17:22:19.471Z,51.06
2023-05-05T17:24:45.763Z,50.23
2023-05-05T17:27:12.731Z,50.77
2023-05-05T17:29:41.059Z,50.04
2023-05-05T17:32:07.873Z,50.27
2023-05-05T17:34:34.251Z,50.19
2023-05-05T17:37:00.745Z,50.05
2023-05-05T17:39:27.130Z,49.25
2023-05-05T17:41:53.472Z,49.56
2023-05-05T17:44:19.844Z,50.06
2023-05-05T17:46:46.201Z,49.54
2023-05-05T17:49:12.531Z,49.45
2023-05-05T17:51:38.843Z,48.75
2023-05-05T17:54:05.334Z,48.69
2023-05-05T17:56:31.716Z,48.61
2023-05-05T17:58:58.107Z,49.09
2023-05-05T18:01:25.109Z,48.51
2023-05-05T18:03:51.581Z,48.63
2023-05-05T18:06:18.218Z,48.49
2023-05-05T18:08:44.789Z,48.27
2023-05-05T18:11:11.218Z,47.71
2023-05-05T18:13:38.719Z,47.73
2023-05-05T18:16:05.220Z,48.08
2023-05-05T18:18:31.619Z,48.05
2023-05-05T18:20:58.007Z,48.25
2023-05-05T18:23:24.324Z,48.01
2023-05-05T18:25:51.087Z,48.44
2023-05-05T18:28:17.452Z,47.96
2023-05-05T18:30:43.810Z,48.07
2023-05-05T18:33:10.534Z,48.69
2023-05-05T18:35:37.119Z,48.85
2023-05-05T18:38:03.672Z,48.59
2023-05-05T18:40:30.019Z,49.55
2023-05-05T18:42:56.875Z,48.50
2023-05-05T18:45:23.240Z,48.43
2023-05-05T18:47:49.990Z,49.42
2023-05-05T18:50:16.758Z,48.91
2023-05-05T18:52:43.094Z,49.52
2023-05-05T18:55:09.786Z,50.22
2023-05-05T18:57:36.388Z,50.65
2023-05-05T19:00:02.822Z,49.47
2023-05-05T19:02:29.258Z,50.06
2023-05-05T19:04:56.011Z,49.46
2023-05-05T19:07:34.333Z,50.05
2023-05-05T19:10:03.477Z,50.36
2023-05-05T19:12:29.822Z,48.90
2023-05-05T19:14:56.177Z,50.51
2023-05-05T19:17:22.703Z,50.22
2023-05-05T19:19:49.079Z,50.13
2023-05-05T19:22:17.375Z,50.48
2023-05-05T19:24:43.796Z,51.16
2023-05-05T19:27:15.502Z,50.02
2023-05-05T19:29:42.941Z,50.25
2023-05-05T19:32:09.514Z,49.58
2023-05-05T19:34:35.907Z,49.48
2023-05-05T19:37:02.290Z,50.84
2023-05-05T19:39:28.658Z,50.21
2023-05-05T19:41:55.079Z,50.50
2023-05-05T19:44:22.736Z,51.32
2023-05-05T19:46:49.136Z,51.61
2023-05-05T19:49:15.560Z,52.02
2023-05-05T19:51:42.680Z,52.11
2023-05-05T19:54:09.094Z,50.92
2023-05-05T19:56:35.458Z,50.62
2023-05-05T19:59:02.415Z,51.14
2023-05-05T20:01:29.153Z,50.57
2023-05-05T20:03:56.475Z,50.64
2023-05-05T20:06:23.038Z,50.49
2023-05-05T20:08:49.395Z,51.68
2023-05-05T20:11:16.144Z,51.84
2023-05-05T20:13:42.981Z,53.25
2023-05-05T20:16:09.816Z,51.32
2023-05-05T20:18:36.202Z,52.47
2023-05-05T20:21:02.571Z,51.31
2023-05-05T20:23:28.931Z,51.91
2023-05-05T20:25:56.074Z,52.05
2023-05-05T20:28:22.728Z,51.85
2023-05-05T20:30:49.084Z,52.50
2023-05-05T20:33:15.560Z,51.43
2023-05-05T20:35:41.924Z,51.85
2023-05-05T20:38:09.706Z,52.60
2023-05-05T20:40:36.096Z,51.82
2023-05-05T20:43:02.485Z,51.75
2023-05-05T20:45:31.596Z,52.67
2023-05-05T20:47:59.059Z,52.77
2023-05-05T20:50:25.653Z,52.41
2023-05-05T20:52:52.017Z,53.62
2023-05-05T20:55:18.485Z,55.20
2023-05-05T20:57:44.793Z,54.74
2023-05-05T21:00:11.473Z,53.31
2023-05-05T21:02:38.166Z,53.77
2023-05-05T21:05:05.161Z,53.91
2023-05-05T21:07:34.080Z,53.55
2023-05-05T21:10:01.088Z,54.87
2023-05-05T21:12:28.449Z,53.84
2023-05-05T21:14:56.879Z,52.82
2023-05-05T21:17:23.271Z,53.08
2023-05-05T21:19:49.568Z,53.03
2023-05-05T21:22:15.866Z,54.28
2023-05-05T21:24:42.166Z,54.92
2023-05-05T21:27:08.511Z,54.49
2023-05-05T21:29:37.631Z,53.26
2023-05-05T21:32:08.014Z,55.12
2023-05-05T21:34:34.660Z,54.15
2023-05-05T21:37:00.988Z,53.52
2023-05-05T21:39:28.086Z,53.88
2023-05-05T21:41:54.401Z,55.71
2023-05-05T21:44:21.040Z,55.87
2023-05-05T21:46:47.483Z,55.03
2023-05-05T21:49:14.539Z,54.42
2023-05-05T21:51:41.187Z,54.87
2023-05-05T21:54:07.476Z,56.35
2023-05-05T21:56:34.314Z,54.87
2023-05-05T21:59:01.032Z,55.79
2023-05-05T22:01:27.440Z,54.59
2023-05-05T22:03:54.248Z,56.16
2023-05-05T22:06:21.123Z,56.92
2023-05-05T22:08:47.851Z,56.93
2023-05-05T22:11:14.181Z,57.39
2023-05-05T22:13:40.878Z,57.39
2023-05-05T22:16:08.066Z,57.58
2023-05-05T22:18:34.757Z,56.79
2023-05-05T22:21:01.698Z,59.39
2023-05-05T22:23:28.587Z,60.65
2023-05-05T22:25:55.462Z,59.78
2023-05-05T22:28:21.879Z,60.03
2023-05-05T22:30:48.386Z,62.38
2023-05-05T22:33:14.996Z,62.55
2023-05-05T22:35:41.336Z,62.40
2023-05-05T22:38:07.763Z,62.96
2023-05-05T22:40:34.299Z,63.47
2023-05-05T22:43:00.647Z,63.67
2023-05-05T22:45:27.163Z,62.74
2023-05-05T22:47:53.823Z,64.87
2023-05-05T22:50:20.362Z,65.05
2023-05-05T22:52:46.901Z,64.61
2023-05-05T22:55:14.573Z,65.33
2023-05-05T22:57:41.307Z,65.51
2023-05-05T23:00:10.711Z,66.28
2023-05-05T23:02:37.660Z,65.99
2023-05-05T23:05:04.209Z,66.45
2023-05-05T23:07:30.648Z,66.24
2023-05-05T23:09:56.921Z,67.83
2023-05-05T23:12:23.253Z,67.99
2023-05-05T23:14:49.924Z,67.43
2023-05-05T23:17:16.355Z,68.61
2023-05-05T23:19:42.694Z,68.74
2023-05-05T23:22:09.003Z,68.71
2023-05-05T23:24:35.321Z,68.63
2023-05-05T23:27:04.533Z,69.13
2023-05-05T23:29:30.955Z,68.93
2023-05-05T23:31:57.440Z,69.41
2023-05-05T23:34:23.999Z,69.78
2023-05-05T23:36:50.443Z,69.92
2023-05-05T23:39:16.758Z,70.18
2023-05-05T23:41:43.111Z,69.45
2023-05-05T23:44:09.394Z,70.14
2023-05-05T23:46:35.720Z,70.77
2023-05-05T23:49:02.130Z,69.89
2023-05-05T23:51:28.442Z,70.31
2023-05-05T23:53:56.223Z,70.05
2023-05-05T23:56:23.023Z,70.46
2023-05-05T23:58:49.366Z,70.97
